Time;durP1;ratioP1;P1;durP2;ratioP2;P2;SDS_P1;SDS_P2;PMS_P1;PMS_P2;Temp;Humidity;BMP_temperature;BMP_pressure;BME280_temperature;BME280_humidity;BME280_pressure;Samples;Min_cycle;Max_cycle;Signal;HPM_P1;HPM_P2
2022/05/05 00:01:18;;;;;;;6.80;4.47;;;8.20;99.90;;;;;;4902380;29;20239;-82
2022/05/05 00:04:03;;;;;;;4.03;3.67;;;8.10;99.90;;;;;;4910346;29;20196;-81
2022/05/05 00:06:48;;;;;;;11.20;4.13;;;8.10;99.90;;;;;;4902921;29;20212;-81
2022/05/05 00:09:32;;;;;;;7.10;4.37;;;8.00;99.90;;;;;;4905332;29;20205;-81
2022/05/05 00:15:22;;;;;;;6.23;4.23;;;8.00;99.90;;;;;;4899264;29;20228;-81
2022/05/05 00:18:07;;;;;;;8.60;4.30;;;8.00;99.90;;;;;;4901754;29;20262;-81
2022/05/05 00:20:51;;;;;;;8.97;4.43;;;7.90;99.90;;;;;;4898092;29;20210;-82
2022/05/05 00:23:36;;;;;;;8.03;4.47;;;7.80;99.90;;;;;;4903088;29;20196;-81
2022/05/05 00:26:20;;;;;;;6.80;4.53;;;7.80;99.90;;;;;;4899839;29;20204;-81
2022/05/05 00:29:05;;;;;;;8.70;4.50;;;7.70;99.90;;;;;;4900658;29;20234;-81
2022/05/05 00:31:49;;;;;;;7.13;4.30;;;7.70;99.90;;;;;;4901262;29;20207;-81
2022/05/05 00:34:34;;;;;;;6.07;4.43;;;7.70;99.90;;;;;;4897882;29;20200;-83
2022/05/05 00:37:18;;;;;;;6.27;4.47;;;7.70;99.90;;;;;;4889040;29;20231;-84
2022/05/05 00:40:03;;;;;;;8.73;4.70;;;7.60;99.90;;;;;;4909600;29;20214;-83
2022/05/05 00:42:48;;;;;;;9.27;5.10;;;7.60;99.90;;;;;;4905948;29;20224;-82
2022/05/05 00:45:33;;;;;;;9.47;4.93;;;7.50;99.90;;;;;;4906029;29;20207;-83
2022/05/05 00:48:18;;;;;;;6.37;4.43;;;7.40;99.90;;;;;;4911216;29;20204;-83
2022/05/05 00:51:03;;;;;;;8.53;4.50;;;7.40;99.90;;;;;;4905108;29;20306;-82
2022/05/05 00:53:47;;;;;;;8.67;4.93;;;7.40;99.90;;;;;;4901956;29;20225;-83
2022/05/05 00:56:31;;;;;;;8.50;4.37;;;7.40;99.90;;;;;;4903214;29;20303;-82
2022/05/05 00:59:15;;;;;;;8.10;4.77;;;7.30;99.90;;;;;;4906467;29;20243;-84
2022/05/05 01:02:02;;;;;;;7.27;4.30;;;7.30;99.90;;;;;;4907387;29;20231;-83
2022/05/05 01:04:47;;;;;;;5.40;4.60;;;7.20;99.90;;;;;;4903133;29;20187;-83
2022/05/05 01:07:31;;;;;;;7.77;4.60;;;7.10;99.90;;;;;;4900649;29;20192;-83
2022/05/05 01:10:16;;;;;;;8.07;4.80;;;7.10;99.90;;;;;;4906751;29;20232;-82
2022/05/05 01:13:01;;;;;;;7.87;5.23;;;7.10;99.90;;;;;;4900151;29;20214;-83
2022/05/05 01:15:46;;;;;;;12.00;4.90;;;6.90;99.90;;;;;;4900774;29;20239;-83
2022/05/05 01:18:30;;;;;;;11.20;5.17;;;6.90;99.90;;;;;;4904438;29;20188;-83
2022/05/05 01:21:21;;;;;;;11.17;5.57;;;6.90;99.90;;;;;;4905664;29;20214;-83
2022/05/05 01:24:05;;;;;;;7.20;4.63;;;6.80;99.90;;;;;;4907175;29;20192;-83
2022/05/05 01:29:54;;;;;;;9.73;4.90;;;6.60;99.90;;;;;;4904695;29;20343;-82
2022/05/05 01:32:39;;;;;;;8.80;4.87;;;6.60;99.90;;;;;;4901252;29;20220;-83
2022/05/05 01:35:23;;;;;;;9.33;5.27;;;6.50;99.90;;;;;;4902140;29;20228;-83
2022/05/05 01:38:15;;;;;;;6.13;4.60;;;6.50;99.90;;;;;;4915089;29;20269;-82
2022/05/05 01:41:00;;;;;;;10.50;6.00;;;6.50;99.90;;;;;;4902550;29;20347;-83
2022/05/05 01:43:45;;;;;;;8.37;6.00;;;6.50;99.90;;;;;;4900498;29;20252;-82
2022/05/05 01:46:29;;;;;;;8.03;5.20;;;6.50;99.90;;;;;;4901470;29;20280;-83
2022/05/05 01:49:13;;;;;;;12.50;5.80;;;6.50;99.90;;;;;;4901432;29;20216;-83
2022/05/05 01:51:58;;;;;;;11.27;6.87;;;6.50;99.90;;;;;;4897074;29;20465;-84
2022/05/05 01:54:43;;;;;;;8.33;6.00;;;6.50;99.90;;;;;;4900044;29;20211;-83
2022/05/05 01:57:27;;;;;;;8.93;6.00;;;6.50;99.90;;;;;;4905041;29;20250;-84
2022/05/05 02:00:12;;;;;;;8.60;5.77;;;6.50;99.90;;;;;;4903022;29;20236;-82
2022/05/05 02:02:57;;;;;;;8.23;5.93;;;6.50;99.90;;;;;;4903703;29;20216;-82
2022/05/05 02:05:47;;;;;;;6.93;5.47;;;6.50;99.90;;;;;;4909341;29;20199;-82
2022/05/05 02:08:32;;;;;;;8.67;5.67;;;6.50;99.90;;;;;;4901321;29;20192;-83
2022/05/05 02:11:16;;;;;;;10.77;6.07;;;6.50;99.90;;;;;;4901427;29;20212;-83
2022/05/05 02:14:00;;;;;;;8.07;6.07;;;6.50;99.90;;;;;;4898242;29;20215;-83
2022/05/05 02:16:44;;;;;;;8.33;6.63;;;6.50;99.90;;;;;;4902963;29;20219;-83
2022/05/05 02:19:29;;;;;;;10.50;5.63;;;6.40;99.90;;;;;;4905946;29;20200;-83
2022/05/05 02:22:14;;;;;;;10.07;6.33;;;6.40;99.90;;;;;;4900361;29;20208;-82
2022/05/05 02:24:59;;;;;;;12.40;6.37;;;6.40;99.90;;;;;;4910005;29;20204;-83
2022/05/05 02:27:51;;;;;;;10.80;6.70;;;6.40;99.90;;;;;;4903449;29;20189;-83
2022/05/05 02:30:35;;;;;;;8.47;6.20;;;6.40;99.90;;;;;;4890500;29;20209;-82
2022/05/05 02:33:20;;;;;;;11.27;6.87;;;6.40;99.90;;;;;;4912061;29;20211;-82
2022/05/05 02:39:08;;;;;;;7.77;6.20;;;6.40;99.90;;;;;;4907055;29;20255;-83
2022/05/05 02:41:52;;;;;;;11.83;5.90;;;6.40;99.90;;;;;;4904196;29;20223;-83
2022/05/05 02:44:37;;;;;;;12.97;6.63;;;6.40;99.90;;;;;;4901588;29;20217;-83
2022/05/05 02:47:21;;;;;;;8.40;6.70;;;6.40;99.90;;;;;;4904113;29;20699;-83
2022/05/05 02:50:05;;;;;;;7.40;5.63;;;6.40;99.90;;;;;;4910223;29;20693;-83
2022/05/05 02:52:50;;;;;;;7.13;6.00;;;6.40;99.90;;;;;;4907286;29;20207;-83
2022/05/05 02:55:34;;;;;;;13.03;6.90;;;6.40;99.90;;;;;;4907838;29;20223;-83
2022/05/05 02:58:18;;;;;;;6.93;6.17;;;6.40;99.90;;;;;;4906400;29;20204;-83
2022/05/05 03:01:03;;;;;;;8.40;5.93;;;6.40;99.90;;;;;;4906565;29;20245;-83
2022/05/05 03:03:47;;;;;;;13.50;6.43;;;6.40;99.90;;;;;;4904635;29;20187;-83
2022/05/05 03:06:32;;;;;;;12.70;6.63;;;6.30;99.90;;;;;;4905108;29;20242;-84
2022/05/05 03:09:18;;;;;;;9.60;6.47;;;6.30;99.90;;;;;;4912113;29;20219;-83
2022/05/05 03:12:03;;;;;;;8.23;6.43;;;6.30;99.90;;;;;;4908698;29;20219;-83
2022/05/05 03:14:47;;;;;;;12.20;6.50;;;6.30;99.90;;;;;;4912630;29;20196;-83
2022/05/05 03:17:33;;;;;;;11.50;7.00;;;6.20;99.90;;;;;;4913890;29;20191;-82
2022/05/05 03:20:17;;;;;;;12.27;6.70;;;6.20;99.90;;;;;;4908792;29;20266;-82
2022/05/05 03:23:02;;;;;;;8.03;6.53;;;6.20;99.90;;;;;;4903021;29;20219;-82
2022/05/05 03:25:46;;;;;;;10.53;7.27;;;6.20;99.90;;;;;;4904486;29;20200;-82
2022/05/05 03:28:30;;;;;;;9.97;7.10;;;6.10;99.90;;;;;;4906224;29;20188;-82
2022/05/05 03:31:15;;;;;;;9.37;6.83;;;6.10;99.90;;;;;;4906303;29;20220;-83
2022/05/05 03:33:59;;;;;;;11.77;6.83;;;6.10;99.90;;;;;;4904617;29;20208;-83
2022/05/05 03:36:43;;;;;;;10.27;6.97;;;6.10;99.90;;;;;;4901706;29;20227;-83
2022/05/05 03:39:28;;;;;;;11.30;7.23;;;6.10;99.90;;;;;;4908674;29;20195;-82
2022/05/05 03:42:12;;;;;;;9.97;7.13;;;6.10;99.90;;;;;;4907725;29;20233;-83
2022/05/05 03:44:56;;;;;;;8.30;7.00;;;6.10;99.90;;;;;;4903860;29;20235;-83
2022/05/05 03:47:40;;;;;;;12.00;6.77;;;6.10;99.90;;;;;;4902580;29;20192;-82
2022/05/05 03:50:24;;;;;;;8.97;7.17;;;6.00;99.90;;;;;;4902986;29;20279;-82
2022/05/05 03:53:08;;;;;;;9.17;7.07;;;6.00;99.90;;;;;;4897203;29;20260;-83
2022/05/05 03:55:52;;;;;;;13.40;8.20;;;6.00;99.90;;;;;;4895170;29;20764;-82
2022/05/05 03:58:36;;;;;;;10.03;6.90;;;6.00;99.90;;;;;;4899676;29;20268;-83
2022/05/05 04:01:21;;;;;;;9.77;6.77;;;6.00;99.90;;;;;;4903883;29;20223;-83
2022/05/05 04:04:05;;;;;;;8.43;6.67;;;6.00;99.90;;;;;;4906674;29;20216;-83
2022/05/05 04:06:49;;;;;;;10.60;7.13;;;6.00;99.90;;;;;;4897987;29;20196;-82
2022/05/05 04:09:33;;;;;;;8.83;6.70;;;6.00;99.90;;;;;;4899077;29;20207;-82
2022/05/05 04:12:18;;;;;;;9.97;6.97;;;6.00;99.90;;;;;;4903206;29;20208;-82
2022/05/05 04:15:02;;;;;;;7.87;7.03;;;5.90;99.90;;;;;;4892458;29;20323;-82
2022/05/05 04:17:47;;;;;;;10.53;6.90;;;5.90;99.90;;;;;;4901287;29;20245;-83
2022/05/05 04:20:32;;;;;;;11.10;7.37;;;5.90;99.90;;;;;;4896732;29;20203;-82
2022/05/05 04:23:16;;;;;;;11.73;7.97;;;5.90;99.90;;;;;;4897806;29;20203;-82
2022/05/05 04:26:00;;;;;;;11.20;6.97;;;5.90;99.90;;;;;;4878450;29;20560;-82
2022/05/05 04:28:47;;;;;;;10.63;6.93;;;5.90;99.90;;;;;;4896239;29;20298;-83
2022/05/05 04:31:33;;;;;;;11.93;7.57;;;5.90;99.90;;;;;;4896342;29;20260;-82
2022/05/05 04:34:17;;;;;;;12.60;7.50;;;5.90;99.90;;;;;;4893609;29;20213;-82
2022/05/05 04:37:01;;;;;;;11.37;7.80;;;5.90;99.90;;;;;;4895719;29;20260;-82
2022/05/05 04:39:46;;;;;;;14.23;7.40;;;5.90;99.90;;;;;;4895090;29;20708;-82
2022/05/05 04:42:30;;;;;;;9.77;7.03;;;5.90;99.90;;;;;;4899449;29;20249;-83
2022/05/05 04:45:14;;;;;;;10.60;7.17;;;5.90;99.90;;;;;;4895551;29;20195;-83
2022/05/05 04:47:58;;;;;;;9.97;6.83;;;5.90;99.90;;;;;;4895747;29;20206;-84
2022/05/05 04:50:42;;;;;;;8.87;6.77;;;5.90;99.90;;;;;;4895421;29;20196;-83
2022/05/05 04:53:27;;;;;;;15.83;7.83;;;5.90;99.90;;;;;;4901336;29;20232;-83
2022/05/05 04:56:12;;;;;;;15.17;8.30;;;5.90;99.90;;;;;;4896615;29;20261;-83
2022/05/05 04:58:56;;;;;;;10.87;7.50;;;6.00;99.90;;;;;;4896091;29;20200;-83
2022/05/05 05:01:40;;;;;;;13.33;7.50;;;6.00;99.90;;;;;;4860040;29;1109929;-82
2022/05/05 05:04:25;;;;;;;12.67;7.63;;;6.10;99.90;;;;;;4898491;29;20215;-83
2022/05/05 05:07:09;;;;;;;11.03;8.00;;;6.00;99.90;;;;;;4898179;29;20219;-83
2022/05/05 05:09:53;;;;;;;12.37;7.50;;;6.10;99.90;;;;;;4903337;29;20210;-82
2022/05/05 05:12:38;;;;;;;11.07;7.30;;;6.10;99.90;;;;;;4894487;29;20219;-83
2022/05/05 05:15:23;;;;;;;13.43;7.40;;;6.10;99.90;;;;;;4891146;29;20371;-84
2022/05/05 05:18:07;;;;;;;11.57;7.83;;;6.10;99.90;;;;;;4890227;29;20226;-84
2022/05/05 05:20:52;;;;;;;12.43;8.27;;;6.20;99.90;;;;;;4901050;29;20236;-83
2022/05/05 05:23:36;;;;;;;15.77;8.33;;;6.20;99.90;;;;;;4901410;29;20235;-84
2022/05/05 05:26:21;;;;;;;12.00;8.17;;;6.30;99.90;;;;;;4907958;29;20246;-83
2022/05/05 05:29:05;;;;;;;15.70;8.90;;;6.30;99.90;;;;;;4894082;29;20219;-83
2022/05/05 05:31:49;;;;;;;12.83;8.77;;;6.40;99.90;;;;;;4895935;29;20289;-83
2022/05/05 05:34:33;;;;;;;13.47;8.47;;;6.40;99.90;;;;;;4902281;29;20192;-84
2022/05/05 05:37:18;;;;;;;21.97;9.13;;;6.50;99.90;;;;;;4895394;29;20200;-83
2022/05/05 05:40:02;;;;;;;15.23;8.80;;;6.60;99.90;;;;;;4896373;29;20336;-84
2022/05/05 05:42:46;;;;;;;12.80;9.07;;;6.60;99.90;;;;;;4895372;29;20228;-83
2022/05/05 05:45:31;;;;;;;12.47;9.27;;;6.70;99.90;;;;;;4885718;29;20201;-83
2022/05/05 05:48:15;;;;;;;9.40;8.33;;;6.80;99.90;;;;;;4898792;29;20191;-84
2022/05/05 05:50:59;;;;;;;15.17;8.93;;;6.90;99.90;;;;;;4900011;29;20284;-83
2022/05/05 05:53:44;;;;;;;14.83;8.70;;;7.00;99.90;;;;;;4897448;29;20184;-84
2022/05/05 05:56:31;;;;;;;12.60;8.67;;;7.00;99.90;;;;;;4896618;29;20219;-83
2022/05/05 05:59:16;;;;;;;13.17;8.53;;;7.10;99.90;;;;;;4893714;29;20188;-83
2022/05/05 06:05:05;;;;;;;13.63;8.17;;;7.30;99.90;;;;;;4898207;29;20220;-84
2022/05/05 06:07:50;;;;;;;12.13;7.97;;;7.40;99.90;;;;;;4895044;29;20204;-84
2022/05/05 06:10:34;;;;;;;17.80;6.77;;;7.50;99.90;;;;;;4904700;29;20195;-82
2022/05/05 06:13:18;;;;;;;7.97;5.83;;;7.60;99.90;;;;;;4895656;29;20199;-83
2022/05/05 06:16:04;;;;;;;10.37;6.43;;;7.70;99.90;;;;;;4897961;29;20219;-83
2022/05/05 06:18:49;;;;;;;10.63;5.30;;;7.80;99.90;;;;;;4903408;29;20196;-82
2022/05/05 06:21:33;;;;;;;10.20;6.43;;;7.90;99.90;;;;;;4896550;29;20676;-82
2022/05/05 06:24:17;;;;;;;13.30;5.77;;;8.00;99.90;;;;;;4908721;29;20200;-83
2022/05/05 06:27:02;;;;;;;9.77;5.20;;;8.10;99.90;;;;;;4898922;29;20188;-83
2022/05/05 06:29:46;;;;;;;8.93;5.20;;;8.20;99.90;;;;;;4902971;29;20216;-83
2022/05/05 06:32:30;;;;;;;9.83;5.20;;;8.30;99.90;;;;;;4898994;29;20587;-82
2022/05/05 06:35:14;;;;;;;15.47;5.90;;;8.40;99.90;;;;;;4906924;29;20276;-83
2022/05/05 06:37:58;;;;;;;11.47;5.23;;;8.50;99.90;;;;;;4901788;29;20284;-83
2022/05/05 06:40:44;;;;;;;9.53;5.73;;;8.60;99.90;;;;;;4903074;29;20195;-83
2022/05/05 06:43:29;;;;;;;8.13;5.50;;;8.70;99.90;;;;;;4901162;29;20280;-84
2022/05/05 06:46:13;;;;;;;12.50;4.90;;;8.80;99.90;;;;;;4896278;29;20199;-82
2022/05/05 06:48:58;;;;;;;8.97;4.87;;;8.90;99.90;;;;;;4900270;29;20196;-83
2022/05/05 06:51:42;;;;;;;14.93;5.23;;;9.00;99.90;;;;;;4905370;29;20223;-82
2022/05/05 06:54:26;;;;;;;10.40;5.47;;;9.10;99.90;;;;;;4902897;29;20184;-82
2022/05/05 06:57:11;;;;;;;10.03;5.40;;;9.20;99.90;;;;;;4898174;29;20330;-83
2022/05/05 06:59:55;;;;;;;8.47;5.00;;;9.30;99.90;;;;;;4896636;29;20253;-83
2022/05/05 07:02:39;;;;;;;12.37;5.20;;;9.40;99.90;;;;;;4895709;29;20232;-83
2022/05/05 07:05:24;;;;;;;11.77;5.23;;;9.50;99.90;;;;;;4900820;29;20191;-83
2022/05/05 07:08:08;;;;;;;9.00;5.03;;;9.50;99.90;;;;;;4902826;29;20325;-83
2022/05/05 07:10:52;;;;;;;8.40;4.63;;;9.60;99.90;;;;;;4910991;29;20191;-83
2022/05/05 07:13:36;;;;;;;8.57;4.63;;;9.70;99.90;;;;;;4901453;29;20199;-83
2022/05/05 07:16:20;;;;;;;8.63;4.40;;;9.80;99.90;;;;;;4895677;29;20222;-82
2022/05/05 07:19:04;;;;;;;11.90;4.97;;;9.90;99.90;;;;;;4905905;29;20195;-83
2022/05/05 07:21:48;;;;;;;10.13;4.27;;;9.90;99.90;;;;;;4894207;29;20255;-82
2022/05/05 07:24:33;;;;;;;11.57;4.27;;;10.00;99.90;;;;;;4895641;29;20303;-83
2022/05/05 07:27:18;;;;;;;7.30;3.33;;;10.10;99.90;;;;;;4882441;29;20196;-83
2022/05/05 07:30:02;;;;;;;14.93;3.80;;;10.10;99.90;;;;;;4898530;29;20231;-83
2022/05/05 07:32:47;;;;;;;11.47;3.97;;;10.20;99.90;;;;;;4902082;29;20276;-83
2022/05/05 07:35:31;;;;;;;11.10;4.43;;;10.20;99.90;;;;;;4901715;29;20645;-83
2022/05/05 07:38:16;;;;;;;12.60;5.13;;;10.30;99.90;;;;;;4905891;29;20247;-84
2022/05/05 07:41:00;;;;;;;7.83;4.70;;;10.40;99.90;;;;;;4909400;29;20303;-83
2022/05/05 07:43:44;;;;;;;9.57;4.90;;;10.50;99.90;;;;;;4897831;29;20353;-83
2022/05/05 07:46:28;;;;;;;10.80;5.43;;;10.50;99.90;;;;;;4879712;29;20677;-81
2022/05/05 07:49:15;;;;;;;7.33;4.37;;;10.60;99.90;;;;;;4891997;29;20221;-80
2022/05/05 07:52:00;;;;;;;10.13;4.83;;;10.70;99.90;;;;;;4897515;29;20219;-79
2022/05/05 07:54:44;;;;;;;9.03;4.83;;;10.80;99.90;;;;;;4897917;29;20221;-81
2022/05/05 07:57:29;;;;;;;10.03;4.77;;;10.90;99.90;;;;;;4904761;29;20287;-81
2022/05/05 08:00:14;;;;;;;11.47;4.63;;;10.90;99.90;;;;;;4896982;29;20684;-80
2022/05/05 08:02:58;;;;;;;11.47;4.63;;;10.90;99.90;;;;;;4896764;29;20243;-80
2022/05/05 08:05:43;;;;;;;9.50;4.57;;;11.00;99.90;;;;;;4898578;29;20192;-80
2022/05/05 08:08:28;;;;;;;7.53;4.23;;;11.00;99.90;;;;;;4895323;29;20235;-80
2022/05/05 08:11:12;;;;;;;7.50;4.33;;;11.10;99.90;;;;;;4892767;29;20272;-80
2022/05/05 08:13:56;;;;;;;7.40;4.17;;;11.10;99.90;;;;;;4903043;29;20268;-81
2022/05/05 08:16:40;;;;;;;9.83;4.00;;;11.20;99.90;;;;;;4896959;29;20605;-80
2022/05/05 08:19:25;;;;;;;8.40;4.13;;;11.20;99.90;;;;;;4898856;29;20188;-80
2022/05/05 08:22:09;;;;;;;6.10;3.50;;;11.30;99.90;;;;;;4895808;29;20216;-81
2022/05/05 08:30:59;;;;;;;9.90;4.37;;;11.60;99.90;;;;;;4897622;29;20215;-80
2022/05/05 08:33:44;;;;;;;7.67;3.60;;;11.60;99.90;;;;;;4897704;29;20191;-82
2022/05/05 08:36:28;;;;;;;4.27;3.67;;;11.60;99.90;;;;;;4900229;29;20657;-82
2022/05/05 08:39:12;;;;;;;10.70;4.33;;;11.70;99.90;;;;;;4898429;29;20189;-82
2022/05/05 08:41:57;;;;;;;6.03;3.80;;;11.80;99.90;;;;;;4897947;29;20227;-83
2022/05/05 08:44:41;;;;;;;7.73;3.97;;;11.90;99.90;;;;;;4899529;29;20216;-82
2022/05/05 08:47:26;;;;;;;11.50;4.23;;;11.90;99.90;;;;;;4899957;29;20226;-82
2022/05/05 08:50:11;;;;;;;7.80;4.20;;;12.00;99.90;;;;;;4896730;29;20200;-83
2022/05/05 08:52:56;;;;;;;6.07;4.00;;;12.00;99.90;;;;;;4897189;29;20724;-81
2022/05/05 08:55:43;;;;;;;8.00;3.83;;;12.10;99.90;;;;;;4900033;29;20766;-82
2022/05/05 08:58:28;;;;;;;5.20;3.63;;;12.10;99.90;;;;;;4898846;29;20192;-83
2022/05/05 09:01:12;;;;;;;7.97;3.67;;;12.30;99.90;;;;;;4897170;29;20227;-82
2022/05/05 09:03:56;;;;;;;6.43;3.00;;;12.50;99.90;;;;;;4896280;29;20199;-82
2022/05/05 09:06:52;;;;;;;6.13;3.30;;;12.50;99.90;;;;;;4898256;29;20211;-82
2022/05/05 09:09:36;;;;;;;7.93;3.50;;;12.60;99.90;;;;;;4897614;29;20399;-82
2022/05/05 09:12:23;;;;;;;7.13;3.50;;;12.70;99.90;;;;;;4896814;29;20296;-83
2022/05/05 09:15:10;;;;;;;6.07;3.47;;;12.80;99.90;;;;;;4895302;29;20196;-82
2022/05/05 09:17:55;;;;;;;6.03;3.13;;;12.90;99.90;;;;;;4898125;29;20196;-82
2022/05/05 09:20:39;;;;;;;8.03;3.60;;;12.90;99.90;;;;;;4898768;29;20190;-83
2022/05/05 09:24:34;;;;;;;10.00;3.33;;;12.90;99.90;;;;;;4887734;29;20251;-82
2022/05/05 09:26:41;;;;;;;6.70;3.43;;;13.10;99.90;;;;;;4898071;29;20265;-83
2022/05/05 09:29:25;;;;;;;6.47;3.60;;;13.20;99.90;;;;;;4894653;29;20203;-83
2022/05/05 09:32:13;;;;;;;6.87;3.40;;;13.20;99.90;;;;;;4896259;29;20240;-82
2022/05/05 09:35:04;;;;;;;9.80;3.57;;;13.30;99.90;;;;;;4897488;29;20215;-82
2022/05/05 09:37:49;;;;;;;5.10;3.20;;;13.50;99.90;;;;;;4899368;29;20226;-81
2022/05/05 09:40:34;;;;;;;5.97;2.90;;;13.60;99.90;;;;;;4901704;29;20219;-83
2022/05/05 09:43:27;;;;;;;3.70;2.70;;;13.70;99.90;;;;;;4894921;29;20272;-82
2022/05/05 09:46:21;;;;;;;4.83;2.97;;;13.80;99.90;;;;;;4895806;29;20200;-82
2022/05/05 09:49:08;;;;;;;4.77;2.70;;;13.90;99.90;;;;;;4899685;29;20198;-82
2022/05/05 09:58:02;;;;;;;4.23;2.60;;;14.20;99.90;;;;;;4897430;29;20727;-82
2022/05/05 10:01:04;;;;;;;4.23;3.03;;;14.30;99.90;;;;;;4898148;29;20198;-82
2022/05/05 10:04:05;;;;;;;5.40;2.90;;;14.40;99.90;;;;;;4898198;29;20194;-82
2022/05/05 10:06:50;;;;;;;5.33;2.53;;;14.50;99.90;;;;;;4899338;29;20916;-82
2022/05/05 10:09:34;;;;;;;7.40;2.77;;;14.50;99.90;;;;;;4893591;29;20227;-82
2022/05/05 10:12:20;;;;;;;5.07;2.37;;;14.60;99.90;;;;;;4900165;29;20215;-82
2022/05/05 10:15:06;;;;;;;5.80;2.67;;;14.80;99.90;;;;;;4896879;29;20187;-82
2022/05/05 10:17:51;;;;;;;5.43;2.40;;;15.00;99.90;;;;;;4896524;29;20207;-82
2022/05/05 10:20:36;;;;;;;6.53;2.83;;;15.20;99.90;;;;;;4892217;29;20265;-81
2022/05/05 10:23:37;;;;;;;11.77;2.70;;;15.30;99.90;;;;;;4896993;29;20280;-80
2022/05/05 10:26:23;;;;;;;3.93;2.60;;;15.50;99.90;;;;;;4896115;29;20233;-80
2022/05/05 10:29:37;;;;;;;5.37;2.70;;;15.50;99.90;;;;;;4893941;29;20192;-83
2022/05/05 10:32:24;;;;;;;6.27;2.97;;;15.50;99.90;;;;;;4898381;29;20216;-82
2022/05/05 10:35:09;;;;;;;7.07;3.33;;;15.60;99.90;;;;;;4894423;29;20195;-82
2022/05/05 10:37:53;;;;;;;4.53;2.87;;;15.60;99.90;;;;;;4896195;29;20283;-81
2022/05/05 10:40:44;;;;;;;7.03;2.90;;;15.70;99.90;;;;;;4896070;29;20199;-82
2022/05/05 10:43:33;;;;;;;3.43;2.67;;;15.80;99.90;;;;;;4896470;29;20601;-81
2022/05/05 10:47:03;;;;;;;4.70;2.63;;;15.90;99.90;;;;;;4892845;29;20192;-81
2022/05/05 10:49:47;;;;;;;7.13;2.93;;;16.00;99.90;;;;;;4894390;29;20196;-81
2022/05/05 10:52:32;;;;;;;5.00;2.93;;;16.00;99.90;;;;;;4895986;29;20224;-81
2022/05/05 10:55:45;;;;;;;5.80;3.40;;;16.00;99.90;;;;;;4902402;29;20195;-81
2022/05/05 10:58:55;;;;;;;5.57;3.20;;;16.10;99.90;;;;;;4896626;29;20771;-81
2022/05/05 11:02:04;;;;;;;16.77;3.30;;;16.20;99.90;;;;;;4902681;29;20266;-81
2022/05/05 11:04:48;;;;;;;8.80;3.10;;;16.40;99.90;;;;;;4898557;29;20227;-81
2022/05/05 11:07:36;;;;;;;6.27;3.33;;;16.50;99.90;;;;;;4899080;29;20647;-81
2022/05/05 11:10:46;;;;;;;5.07;3.10;;;16.60;99.90;;;;;;4900935;29;20208;-81
2022/05/05 11:13:38;;;;;;;4.70;2.80;;;16.70;99.90;;;;;;4900977;29;20208;-81
2022/05/05 11:22:34;;;;;;;5.77;3.53;;;16.80;99.90;;;;;;4900248;29;20253;-81
2022/05/05 11:25:18;;;;;;;4.37;3.23;;;16.90;99.90;;;;;;4902451;29;20184;-81
2022/05/05 11:28:02;;;;;;;5.90;3.50;;;17.00;99.90;;;;;;4900296;29;20235;-80
2022/05/05 11:30:46;;;;;;;6.87;3.27;;;17.10;99.90;;;;;;4898268;29;20188;-81
2022/05/05 11:33:30;;;;;;;3.40;2.77;;;17.10;99.90;;;;;;4899537;29;20208;-81
2022/05/05 11:36:15;;;;;;;5.83;3.33;;;17.20;99.90;;;;;;4898578;29;20204;-80
2022/05/05 11:39:00;;;;;;;9.77;3.80;;;17.20;99.90;;;;;;4899668;29;20196;-80
2022/05/05 11:41:56;;;;;;;7.00;3.23;;;17.20;99.90;;;;;;4902271;29;20630;-80
2022/05/05 11:44:43;;;;;;;6.83;3.67;;;17.30;99.90;;;;;;4901417;29;20216;-80
2022/05/05 11:47:28;;;;;;;6.07;3.10;;;17.40;99.90;;;;;;4901591;29;20252;-80
2022/05/05 11:50:12;;;;;;;19.03;3.87;;;17.40;99.90;;;;;;4903393;29;20200;-80
2022/05/05 11:52:57;;;;;;;4.40;3.10;;;17.50;99.90;;;;;;4901306;29;20279;-80
2022/05/05 11:55:44;;;;;;;10.63;3.07;;;17.50;99.90;;;;;;4904922;29;20219;-81
2022/05/05 12:01:42;;;;;;;7.13;3.10;;;17.70;99.90;;;;;;4901824;29;20278;-80
2022/05/05 12:04:28;;;;;;;8.23;3.27;;;17.60;99.90;;;;;;4903773;29;20200;-81
2022/05/05 12:07:19;;;;;;;5.13;3.30;;;17.60;99.90;;;;;;4900390;29;20586;-81
2022/05/05 12:10:07;;;;;;;5.03;3.30;;;17.60;99.90;;;;;;4899303;29;20196;-81
2022/05/05 12:12:52;;;;;;;5.90;3.23;;;17.60;99.90;;;;;;4899466;29;20227;-81
2022/05/05 12:15:38;;;;;;;4.57;3.10;;;17.60;99.90;;;;;;4899595;29;20223;-80
2022/05/05 12:18:22;;;;;;;8.57;4.10;;;17.60;99.90;;;;;;4897886;29;20610;-81
2022/05/05 12:21:06;;;;;;;3.57;3.27;;;17.60;99.90;;;;;;4899738;29;20287;-80
2022/05/05 12:24:02;;;;;;;6.67;3.53;;;17.50;99.90;;;;;;4896867;29;20195;-80
2022/05/05 12:26:46;;;;;;;5.73;3.67;;;17.50;99.90;;;;;;4897844;29;20213;-80
2022/05/05 12:29:42;;;;;;;6.03;3.80;;;17.50;99.90;;;;;;4902943;29;20347;-81
2022/05/05 12:32:26;;;;;;;6.13;3.57;;;17.50;99.90;;;;;;4897923;29;20357;-81
2022/05/05 12:35:11;;;;;;;5.33;3.90;;;17.40;99.90;;;;;;4898927;29;20212;-81
2022/05/05 12:37:59;;;;;;;4.77;3.90;;;17.40;99.90;;;;;;4898055;29;20296;-81
2022/05/05 12:40:46;;;;;;;6.53;3.70;;;17.50;99.90;;;;;;4899260;29;20252;-81
2022/05/05 12:43:30;;;;;;;4.23;3.40;;;17.50;99.90;;;;;;4903712;29;20204;-81
2022/05/05 12:46:16;;;;;;;8.83;4.20;;;17.50;99.90;;;;;;4899207;29;20721;-80
2022/05/05 12:49:01;;;;;;;4.93;3.67;;;17.60;99.90;;;;;;4901453;29;20203;-81
2022/05/05 12:51:48;;;;;;;5.47;3.53;;;17.70;99.90;;;;;;4900129;29;20215;-81
2022/05/05 13:00:39;;;;;;;7.20;3.40;;;17.70;99.90;;;;;;4899687;29;20218;-80
2022/05/05 13:03:23;;;;;;;6.87;3.80;;;17.80;99.90;;;;;;4898758;29;20203;-81
2022/05/05 13:06:11;;;;;;;5.90;3.30;;;17.90;99.90;;;;;;4900739;29;20227;-81
2022/05/05 13:08:56;;;;;;;4.30;3.60;;;17.80;99.90;;;;;;4892935;29;20689;-82
2022/05/05 13:11:44;;;;;;;7.33;3.80;;;17.70;99.90;;;;;;4897413;29;20317;-80
2022/05/05 13:14:29;;;;;;;13.97;3.87;;;17.70;99.90;;;;;;4901727;29;20196;-81
2022/05/05 13:17:13;;;;;;;7.73;3.60;;;17.80;99.90;;;;;;4899223;29;20730;-81
2022/05/05 13:19:57;;;;;;;8.23;3.50;;;17.80;99.90;;;;;;4897686;29;20216;-79
2022/05/05 13:22:41;;;;;;;3.90;3.07;;;17.80;99.90;;;;;;4896309;29;20214;-79
2022/05/05 13:25:26;;;;;;;6.87;2.53;;;17.90;99.90;;;;;;4895730;29;20195;-81
2022/05/05 13:28:10;;;;;;;5.23;2.97;;;17.90;99.90;;;;;;4896980;29;20236;-81
2022/05/05 13:30:55;;;;;;;5.03;2.90;;;18.00;99.90;;;;;;4896929;29;20203;-81
2022/05/05 13:33:41;;;;;;;7.33;2.53;;;18.00;99.90;;;;;;4897644;29;20188;-81
2022/05/05 13:36:26;;;;;;;4.07;2.70;;;18.10;99.90;;;;;;4897030;29;20761;-81
2022/05/05 13:39:12;;;;;;;5.67;2.67;;;18.10;99.90;;;;;;4896494;29;20198;-81
2022/05/05 13:41:56;;;;;;;2.97;2.60;;;18.10;99.90;;;;;;4897743;29;20220;-81
2022/05/05 13:44:40;;;;;;;5.53;2.40;;;18.10;99.90;;;;;;4896945;29;20271;-81
2022/05/05 13:47:24;;;;;;;5.53;2.63;;;18.10;99.90;;;;;;4898681;29;20200;-81
2022/05/05 13:50:12;;;;;;;6.37;2.70;;;18.20;99.90;;;;;;4903016;29;20184;-81
2022/05/05 13:52:57;;;;;;;3.20;1.80;;;18.20;99.90;;;;;;4905015;29;20739;-81
2022/05/05 13:55:41;;;;;;;4.60;2.20;;;18.30;99.90;;;;;;4905890;29;20233;-81
2022/05/05 13:58:25;;;;;;;1.80;1.67;;;18.30;99.90;;;;;;4905849;29;20565;-81
2022/05/05 14:01:10;;;;;;;4.20;2.10;;;18.30;99.90;;;;;;4902395;29;20216;-81
2022/05/05 14:03:55;;;;;;;1.67;1.57;;;18.30;99.90;;;;;;4901263;29;20204;-82
2022/05/05 14:06:39;;;;;;;3.27;1.70;;;18.30;99.90;;;;;;4902320;29;20203;-81
2022/05/05 14:12:27;;;;;;;3.37;1.53;;;18.30;99.90;;;;;;4902817;29;20219;-81
2022/05/05 14:15:11;;;;;;;3.65;1.60;;;18.40;99.90;;;;;;4903415;29;20568;-81
2022/05/05 14:17:55;;;;;;;2.07;1.43;;;18.40;99.90;;;;;;4902626;29;20203;-81
2022/05/05 14:20:39;;;;;;;2.93;1.70;;;18.40;99.90;;;;;;4905579;29;20199;-81
2022/05/05 14:23:23;;;;;;;3.40;1.93;;;18.40;99.90;;;;;;4903156;29;20180;-81
2022/05/05 14:26:08;;;;;;;3.80;2.10;;;18.40;99.90;;;;;;4909725;29;20220;-82
2022/05/05 14:28:52;;;;;;;2.93;2.03;;;18.40;99.90;;;;;;4907486;29;20271;-81
2022/05/05 14:31:37;;;;;;;6.10;2.57;;;18.40;99.90;;;;;;4906908;29;20248;-81
2022/05/05 14:34:21;;;;;;;7.77;2.27;;;18.40;99.90;;;;;;4905802;29;20251;-79
2022/05/05 14:37:06;;;;;;;4.00;1.77;;;18.40;99.90;;;;;;4906701;29;20638;-82
2022/05/05 14:39:50;;;;;;;2.60;1.63;;;18.40;99.90;;;;;;4913243;29;20180;-81
2022/05/05 14:42:35;;;;;;;3.27;1.57;;;18.40;99.90;;;;;;4911802;29;20267;-82
2022/05/05 14:45:20;;;;;;;5.13;1.77;;;18.40;99.90;;;;;;4911622;29;20180;-82
2022/05/05 14:48:06;;;;;;;3.43;2.10;;;18.40;99.90;;;;;;4911269;29;20183;-81
2022/05/05 14:50:50;;;;;;;2.77;1.87;;;18.50;99.90;;;;;;4912725;29;20207;-81
2022/05/05 14:53:35;;;;;;;2.63;1.93;;;18.50;99.90;;;;;;4907542;29;20192;-82
2022/05/05 14:56:20;;;;;;;3.78;1.70;;;18.60;99.90;;;;;;4911102;29;20282;-82
2022/05/05 14:59:05;;;;;;;4.67;1.60;;;18.50;99.90;;;;;;4911179;29;20192;-82
2022/05/05 15:01:49;;;;;;;5.97;1.67;;;18.60;99.90;;;;;;4912080;29;20302;-82
2022/05/05 15:04:34;;;;;;;5.47;1.87;;;18.50;99.90;;;;;;4908756;29;20243;-82
2022/05/05 15:07:18;;;;;;;7.20;2.30;;;18.50;99.90;;;;;;4907110;29;20258;-82